Time;durP1;ratioP1;P1;durP2;ratioP2;P2;SDS_P1;SDS_P2;PMS_P1;PMS_P2;Temp;Humidity;BMP_temperature;BMP_pressure;BME280_temperature;BME280_humidity;BME280_pressure;Samples;Min_cycle;Max_cycle;Signal;HPM_P1;HPM_P2
2022/04/17 00:00:11;;;;;;;5.40;2.70;;;;;;;5.61;62.11;102184.97;4993651;28;20048;-68
2022/04/17 00:03:15;;;;;;;5.05;2.40;;;;;;;5.38;62.97;102184.22;4993487;28;20165;-68
2022/04/17 00:06:18;;;;;;;3.97;1.92;;;;;;;5.51;62.10;102193.69;4993189;28;20474;-68
2022/04/17 00:09:22;;;;;;;6.45;2.30;;;;;;;5.20;62.98;102190.34;4993379;28;20481;-69
2022/04/17 00:12:26;;;;;;;6.00;2.40;;;;;;;5.29;62.36;102182.53;4993735;28;20461;-68
2022/04/17 00:15:29;;;;;;;4.22;2.30;;;;;;;5.42;62.06;102183.34;4993661;28;20056;-67
2022/04/17 00:18:32;;;;;;;7.57;2.63;;;;;;;5.15;63.58;102182.59;4993720;28;20053;-68
2022/04/17 00:21:36;;;;;;;9.93;3.55;;;;;;;4.92;63.01;102179.22;4993466;28;20112;-68
2022/04/17 00:24:39;;;;;;;5.95;3.63;;;;;;;4.94;63.31;102180.06;4993794;28;20049;-68
2022/04/17 00:27:43;;;;;;;7.95;3.55;;;;;;;4.81;64.72;102192.16;4993393;28;20453;-68
2022/04/17 00:30:46;;;;;;;;;;;;;;;5.10;64.10;102184.31;4993679;28;20125;-68
2022/04/17 00:33:50;;;;;;;5.55;3.75;;;;;;;4.95;63.92;102180.06;4992906;28;19921;-68
2022/04/17 00:36:53;;;;;;;6.05;2.90;;;;;;;4.87;63.35;102172.28;4992801;28;20749;-68
2022/04/17 00:39:56;;;;;;;;;;;;;;;4.89;64.22;102175.75;4994056;28;20045;-68
2022/04/17 00:42:59;;;;;;;5.57;2.60;;;;;;;4.76;62.17;102179.25;4997298;28;19921;-68
2022/04/17 00:46:02;;;;;;;5.28;2.92;;;;;;;4.89;62.44;102178.34;4997697;28;20115;-68
2022/04/17 00:49:06;;;;;;;6.07;2.85;;;;;;;4.76;63.21;102176.66;4997260;28;20109;-68
2022/04/17 00:52:10;;;;;;;5.15;2.40;;;;;;;5.03;62.54;102178.28;4997474;28;20053;-68
2022/04/17 00:55:15;;;;;;;4.50;2.50;;;;;;;4.57;63.94;102168.03;4997225;28;20053;-68
2022/04/17 00:58:19;;;;;;;5.57;2.08;;;;;;;4.54;64.15;102167.19;4997484;28;20053;-68
2022/04/17 01:01:22;;;;;;;5.15;2.28;;;;;;;4.39;64.40;102176.66;5007425;28;20103;-68
2022/04/17 01:04:26;;;;;;;6.13;2.15;;;;;;;4.28;64.77;102168.06;4997169;28;20057;-68
2022/04/17 01:07:29;;;;;;;4.90;2.17;;;;;;;4.36;64.66;102176.66;4997422;28;20045;-68
2022/04/17 01:10:33;;;;;;;3.75;2.15;;;;;;;4.75;62.90;102167.13;4996933;28;20096;-68
2022/04/17 01:13:42;;;;;;;4.25;1.98;;;;;;;4.54;62.99;102162.84;4985168;28;20125;-68
2022/04/17 01:16:46;;;;;;;4.03;2.20;;;;;;;4.60;62.70;102160.25;4996263;28;20053;-68
2022/04/17 01:19:50;;;;;;;5.07;2.20;;;;;;;4.35;63.12;102154.22;4996099;28;20521;-68
2022/04/17 01:29:39;;;;;;;4.32;2.13;;;;;;;4.52;62.96;102161.97;4995767;28;20125;-68
2022/04/17 01:32:42;;;;;;;3.83;1.77;;;;;;;4.57;62.57;102157.66;4995130;28;20049;-68
2022/04/17 01:35:46;;;;;;;3.95;2.35;;;;;;;4.36;63.61;102143.00;4995862;28;20045;-68
2022/04/17 01:38:49;;;;;;;;;;;;;;;4.39;63.47;102137.81;4996167;28;20045;-68
2022/04/17 01:41:54;;;;;;;3.05;1.50;;;;;;;4.17;64.40;102143.88;4995357;28;20400;-68
2022/04/17 01:44:57;;;;;;;5.10;1.95;;;;;;;3.97;64.81;102134.38;4995482;28;20104;-68
2022/04/17 01:48:00;;;;;;;9.48;2.10;;;;;;;4.03;64.72;102135.25;4995146;28;20073;-68
2022/04/17 01:51:04;;;;;;;4.75;2.17;;;;;;;4.25;64.13;102129.22;4995573;28;20042;-68
2022/04/17 01:54:09;;;;;;;4.93;2.25;;;;;;;4.33;63.53;102129.19;4995307;28;20069;-67
2022/04/17 01:57:12;;;;;;;4.32;1.98;;;;;;;3.97;64.54;102124.03;4995188;28;20176;-68
2022/04/17 02:00:16;;;;;;;;;;;;;;;3.79;65.26;102128.31;4995783;28;20057;-68
2022/04/17 02:03:19;;;;;;;7.05;2.38;;;;;;;3.88;65.53;102129.19;4995227;28;20374;-68
2022/04/17 02:06:23;;;;;;;;;;;;;;;4.14;64.03;102128.34;4996018;28;20057;-68
2022/04/17 02:09:26;;;;;;;5.38;2.00;;;;;;;4.23;62.67;102123.16;4994860;28;19920;-68
2022/04/17 02:12:29;;;;;;;3.30;1.77;;;;;;;4.20;63.22;102136.97;4994101;28;20405;-68
2022/04/17 02:15:33;;;;;;;4.38;2.00;;;;;;;3.86;65.14;102133.50;4994782;28;20046;-68
2022/04/17 02:18:37;;;;;;;4.53;1.83;;;;;;;3.77;65.20;102130.91;4995102;28;20041;-68
2022/04/17 02:21:40;;;;;;;6.13;2.35;;;;;;;3.87;65.11;102131.78;4998539;28;20115;-67
2022/04/17 02:24:44;;;;;;;6.40;1.98;;;;;;;4.09;63.57;102122.31;5002059;28;20053;-67
2022/04/17 02:27:47;;;;;;;6.32;1.80;;;;;;;4.22;62.67;102129.22;5000375;28;20053;-68
2022/04/17 02:30:51;;;;;;;6.05;2.40;;;;;;;4.10;62.92;102122.31;4994785;28;20072;-69
2022/04/17 02:33:56;;;;;;;5.07;1.88;;;;;;;3.61;64.19;102124.00;4994634;28;20064;-68
2022/04/17 02:37:00;;;;;;;3.45;2.00;;;;;;;3.55;65.06;102119.66;4993918;28;20049;-68
2022/04/17 02:40:04;;;;;;;3.78;1.45;;;;;;;3.48;65.48;102105.84;4994358;28;20053;-67
2022/04/17 02:43:07;;;;;;;5.07;1.98;;;;;;;3.34;66.45;102117.88;4994270;28;20050;-68
2022/04/17 02:46:11;;;;;;;7.53;2.00;;;;;;;3.65;64.47;102115.38;4994468;28;20081;-68
2022/04/17 02:49:14;;;;;;;4.25;2.10;;;;;;;3.53;64.94;102112.75;4982380;28;20038;-68
2022/04/17 02:52:18;;;;;;;3.63;2.00;;;;;;;3.37;65.42;102109.25;4994063;28;20084;-68
2022/04/17 02:55:22;;;;;;;;;;;;;;;3.46;65.55;102107.56;4994427;28;20053;-68
2022/04/17 02:58:25;;;;;;;4.18;1.85;;;;;;;3.61;64.88;102103.28;4994086;28;19971;-68
2022/04/17 03:08:15;;;;;;;3.72;1.63;;;;;;;3.58;64.45;102096.38;4993235;28;20049;-68
2022/04/17 03:11:18;;;;;;;7.10;1.80;;;;;;;3.43;64.83;102092.03;4993163;28;20057;-68
2022/04/17 03:14:22;;;;;;;3.80;1.95;;;;;;;2.98;66.52;102091.03;4993884;28;20117;-69
2022/04/17 03:17:28;;;;;;;4.20;1.77;;;;;;;2.93;67.18;102094.44;5004122;28;20058;-68
2022/04/17 03:20:31;;;;;;;6.57;2.13;;;;;;;3.24;65.37;102090.25;4993947;28;20053;-67
2022/04/17 03:23:35;;;;;;;3.97;1.75;;;;;;;2.96;66.25;102086.72;4993928;28;20532;-68
2022/04/17 03:26:41;;;;;;;4.22;1.63;;;;;;;2.78;66.80;102092.66;4993436;28;20049;-68
2022/04/17 03:29:45;;;;;;;4.45;1.75;;;;;;;2.82;66.94;102093.53;4993708;28;20041;-67
2022/04/17 03:32:50;;;;;;;3.85;1.90;;;;;;;3.02;65.24;102092.75;4993637;28;20138;-68
2022/04/17 03:35:54;;;;;;;4.03;2.08;;;;;;;3.12;65.16;102088.50;4993380;28;20188;-68
2022/04/17 03:38:59;;;;;;;3.38;1.80;;;;;;;2.88;66.37;102081.50;4993808;28;20061;-68
2022/04/17 03:42:02;;;;;;;7.50;2.03;;;;;;;3.15;65.61;102090.22;4993448;28;20049;-67
2022/04/17 03:45:07;;;;;;;5.65;2.15;;;;;;;3.12;65.44;102082.47;4645966;28;10000125;-68
2022/04/17 03:48:11;;;;;;;3.47;1.70;;;;;;;2.75;66.99;102077.16;4989923;28;20077;-68
2022/04/17 03:51:15;;;;;;;3.30;1.80;;;;;;;2.55;67.64;102074.44;4989908;28;20409;-68
2022/04/17 03:54:19;;;;;;;3.50;2.00;;;;;;;2.76;67.57;102078.88;4989875;28;20092;-68
2022/04/17 03:57:23;;;;;;;6.55;1.90;;;;;;;2.86;66.01;102083.22;4988948;28;20052;-68
2022/04/17 04:00:26;;;;;;;;;;;;;;;2.60;67.10;102093.41;4978336;28;20057;-68
2022/04/17 04:03:30;;;;;;;5.78;2.00;;;;;;;2.65;67.04;102089.16;4989792;28;19926;-67
2022/04/17 04:06:33;;;;;;;4.10;1.65;;;;;;;2.75;66.14;102088.34;4989916;28;20049;-67
2022/04/17 04:09:37;;;;;;;3.00;1.70;;;;;;;2.93;65.49;102089.28;4991643;28;20107;-68
2022/04/17 04:12:41;;;;;;;4.75;2.00;;;;;;;2.53;67.55;102095.09;5009091;28;20515;-68
2022/04/17 04:15:46;;;;;;;3.80;1.73;;;;;;;2.41;68.06;102097.59;5009723;28;20516;-68
2022/04/17 04:18:50;;;;;;;6.13;2.53;;;;;;;2.55;67.73;102092.53;5007985;28;20608;-67
2022/04/17 04:21:53;;;;;;;3.80;2.28;;;;;;;2.60;67.42;102098.59;5009834;28;20053;-68
2022/04/17 04:24:57;;;;;;;4.97;2.17;;;;;;;2.38;68.56;102099.31;5009947;28;20045;-67
2022/04/17 04:31:22;;;;;;;4.70;1.50;;;;;;;2.75;66.12;102090.06;4319732;28;10000712;-68
2022/04/17 04:34:26;;;;;;;3.58;1.90;;;;;;;2.97;65.77;102088.47;5009137;28;20056;-67
2022/04/17 04:37:29;;;;;;;7.90;2.10;;;;;;;2.86;66.38;102085.81;5008746;28;20136;-68
2022/04/17 04:40:33;;;;;;;4.05;2.20;;;;;;;2.67;66.75;102084.00;5011540;28;20057;-68
2022/04/17 04:43:36;;;;;;;;;;;;;;;2.45;67.69;102083.84;5012824;28;20104;-68
2022/04/17 04:46:39;;;;;;;3.33;1.73;;;;;;;2.21;68.63;102105.22;5012679;28;19920;-67
2022/04/17 04:49:43;;;;;;;2.90;1.83;;;;;;;2.60;67.57;102092.56;5012212;28;20400;-68
2022/04/17 04:52:46;;;;;;;4.07;1.80;;;;;;;2.82;66.71;102099.56;5012401;28;20503;-68
2022/04/17 04:55:53;;;;;;;3.97;1.92;;;;;;;2.84;66.61;102094.41;5012127;28;20085;-68
2022/04/17 04:58:56;;;;;;;4.90;2.03;;;;;;;2.82;67.01;102104.75;5012236;28;20408;-67
2022/04/17 05:02:00;;;;;;;4.22;1.73;;;;;;;2.85;66.35;102099.59;5012162;28;20152;-68
2022/04/17 05:05:07;;;;;;;3.72;1.85;;;;;;;2.68;66.74;102103.78;5022620;28;20385;-67
2022/04/17 05:08:10;;;;;;;6.68;2.40;;;;;;;2.42;68.05;102114.81;5011985;28;20045;-68
2022/04/17 05:11:14;;;;;;;;;;;;;;;2.37;68.69;102111.34;5007514;28;20115;-67
2022/04/17 05:14:20;;;;;;;3.42;1.92;;;;;;;2.39;68.62;102113.94;4988532;28;19937;-68
2022/04/17 05:17:23;;;;;;;3.58;1.85;;;;;;;2.58;68.61;102114.91;4987443;28;20046;-68
2022/04/17 05:20:27;;;;;;;5.07;1.90;;;;;;;2.80;67.90;102111.59;4989038;28;20053;-68
2022/04/17 05:23:30;;;;;;;;;;;;;;;2.73;67.72;102109.84;4996492;28;20075;-68
2022/04/17 05:26:34;;;;;;;4.28;1.70;;;;;;;2.93;66.76;102105.63;5008051;28;20018;-68
2022/04/17 05:29:38;;;;;;;3.38;1.80;;;;;;;2.88;66.70;102115.09;5010941;28;20052;-68
2022/04/17 05:32:45;;;;;;;3.08;1.70;;;;;;;2.67;66.74;102117.56;5010494;28;20045;-68
2022/04/17 05:35:52;;;;;;;6.40;1.73;;;;;;;2.91;66.65;102112.53;5010983;28;20112;-68
2022/04/17 05:38:56;;;;;;;5.57;2.20;;;;;;;3.00;66.84;102112.59;5010485;28;20077;-68
2022/04/17 05:41:59;;;;;;;;;;;;;;;3.22;66.81;102118.72;5012051;28;20618;-68
2022/04/17 05:45:03;;;;;;;4.40;1.98;;;;;;;3.19;67.14;102113.53;5011499;28;19913;-68
2022/04/17 05:48:09;;;;;;;4.60;2.00;;;;;;;3.39;66.42;102110.13;4998417;28;20045;-68
2022/04/17 05:51:12;;;;;;;4.85;1.98;;;;;;;3.45;65.96;102107.56;4998476;28;20049;-68
2022/04/17 05:54:16;;;;;;;9.60;2.33;;;;;;;3.21;66.62;102103.19;5009183;28;20060;-68
2022/04/17 05:57:20;;;;;;;5.38;1.92;;;;;;;3.08;66.03;102106.56;5010881;28;20148;-68
2022/04/17 06:00:23;;;;;;;;;;;;;;;2.99;66.23;102102.22;5011968;28;20048;-68
2022/04/17 06:03:27;;;;;;;4.10;2.03;;;;;;;2.96;66.63;102097.03;5010879;28;19956;-68
2022/04/17 06:06:30;;;;;;;2.88;1.77;;;;;;;3.00;66.92;102101.38;5010451;28;20065;-68
2022/04/17 06:09:33;;;;;;;;;;;;;;;3.21;66.28;102087.66;5010409;28;20129;-68
2022/04/17 06:12:37;;;;;;;3.08;1.52;;;;;;;3.40;65.74;102086.84;5010203;28;20059;-68
2022/04/17 06:15:40;;;;;;;5.57;1.70;;;;;;;3.65;64.72;102080.00;5009929;28;20132;-68
2022/04/17 06:18:45;;;;;;;4.22;1.65;;;;;;;3.71;64.81;102082.59;5010911;28;20177;-68
2022/04/17 06:21:49;;;;;;;5.75;1.85;;;;;;;3.44;65.74;102080.81;5009978;28;20583;-68
2022/04/17 06:24:52;;;;;;;3.90;1.80;;;;;;;3.67;64.85;102067.06;5010304;28;20049;-68
2022/04/17 06:27:56;;;;;;;3.38;1.70;;;;;;;4.02;64.62;102063.63;5010048;28;20076;-68
2022/04/17 06:31:00;;;;;;;3.50;1.77;;;;;;;4.07;64.66;102069.66;5009936;28;20076;-68
2022/04/17 06:34:03;;;;;;;3.88;1.83;;;;;;;4.08;65.31;102061.03;5010912;28;20095;-68
2022/04/17 06:37:06;;;;;;;4.65;2.05;;;;;;;4.28;64.77;102061.03;5010222;28;20076;-68
2022/04/17 06:40:10;;;;;;;4.10;1.67;;;;;;;4.51;64.06;102059.25;5008726;28;20091;-68
2022/04/17 06:43:13;;;;;;;4.00;1.90;;;;;;;4.58;63.55;102060.94;4990269;28;20544;-68
2022/04/17 06:46:17;;;;;;;6.00;2.13;;;;;;;4.74;63.60;102061.75;4988629;28;20044;-68
2022/04/17 06:49:21;;;;;;;6.68;1.88;;;;;;;4.91;62.89;102059.09;4989972;28;20101;-68
2022/04/17 06:52:24;;;;;;;6.35;2.03;;;;;;;5.11;62.85;102056.44;5008616;28;20124;-68
2022/04/17 06:55:27;;;;;;;;;;;;;;;5.16;62.12;102049.47;5010229;28;20048;-68
2022/04/17 06:58:31;;;;;;;8.65;4.63;;;;;;;5.06;62.39;102047.78;5010408;28;20016;-68
2022/04/17 07:01:34;;;;;;;;;;;;;;;5.36;61.97;102041.59;5009883;28;20057;-68
2022/04/17 07:04:38;;;;;;;6.53;3.28;;;;;;;5.61;60.81;102031.88;5008729;28;19919;-68
2022/04/17 07:07:42;;;;;;;7.30;2.70;;;;;;;5.78;61.86;102024.84;5009009;28;20048;-68
2022/04/17 07:10:45;;;;;;;6.25;2.30;;;;;;;5.77;61.82;102020.50;5009387;28;20052;-68
2022/04/17 07:13:49;;;;;;;5.57;2.33;;;;;;;5.99;59.83;102017.75;5009989;28;20045;-68
2022/04/17 07:16:52;;;;;;;5.22;2.28;;;;;;;6.20;58.68;102009.75;5009001;28;21048;-68
2022/04/17 07:19:57;;;;;;;5.20;2.83;;;;;;;6.37;57.81;102001.78;5008267;28;20634;-68
2022/04/17 07:23:01;;;;;;;5.82;2.28;;;;;;;6.40;58.08;101996.53;5009087;28;20076;-68
2022/04/17 07:26:04;;;;;;;5.97;2.30;;;;;;;6.46;57.77;101993.88;5008421;28;20088;-68
2022/04/17 07:29:08;;;;;;;6.65;2.38;;;;;;;6.57;57.50;101979.88;5008954;28;20112;-68
2022/04/17 07:32:12;;;;;;;4.78;2.05;;;;;;;6.53;56.99;101985.13;5008957;28;20045;-68
2022/04/17 07:35:17;;;;;;;6.93;2.03;;;;;;;6.67;56.84;101982.38;5008275;28;20052;-68
2022/04/17 07:38:21;;;;;;;5.50;2.22;;;;;;;6.83;56.63;101977.84;5008194;28;20417;-68
2022/04/17 07:41:25;;;;;;;6.80;1.70;;;;;;;6.98;56.09;101984.53;5009180;28;20133;-68
2022/04/17 07:44:29;;;;;;;9.25;2.13;;;;;;;7.12;55.61;101984.38;5008390;28;20045;-68
2022/04/17 07:47:33;;;;;;;7.70;2.63;;;;;;;7.19;55.07;101988.59;4993599;28;20148;-68
2022/04/17 07:50:36;;;;;;;;;;;;;;;7.36;55.46;101990.94;5010865;28;20049;-68
2022/04/17 07:53:39;;;;;;;4.35;2.08;;;;;;;7.66;55.00;101989.59;5010867;28;19968;-68
2022/04/17 07:56:43;;;;;;;4.10;2.30;;;;;;;7.79;53.86;101980.69;5009418;28;20625;-68
2022/04/17 07:59:50;;;;;;;5.75;2.38;;;;;;;7.88;53.96;101967.50;5009766;28;20040;-68
2022/04/17 08:03:06;;;;;;;5.88;2.45;;;;;;;7.98;53.79;101972.56;5008673;28;20040;-68
2022/04/17 08:06:10;;;;;;;4.45;2.25;;;;;;;8.03;52.75;101966.34;5008821;28;20080;-68
2022/04/17 08:09:14;;;;;;;4.30;1.70;;;;;;;8.24;52.77;101964.25;5008885;28;20045;-68
2022/04/17 08:12:17;;;;;;;;;;;;;;;8.36;53.30;101953.56;5010293;28;20702;-69
2022/04/17 08:15:21;;;;;;;6.40;1.90;;;;;;;8.48;52.64;101947.25;5009656;28;20011;-68
2022/04/17 08:18:24;;;;;;;3.88;1.70;;;;;;;8.61;51.34;101948.72;4970520;28;20085;-68
2022/04/17 08:21:28;;;;;;;3.47;1.65;;;;;;;8.71;51.69;101933.72;4970358;28;20078;-68
2022/04/17 08:24:31;;;;;;;5.13;1.80;;;;;;;8.70;50.90;101942.44;4968798;28;20050;-68
2022/04/17 08:27:47;;;;;;;3.28;1.73;;;;;;;8.77;51.10;101944.03;4974152;28;20044;-68
2022/04/17 08:30:50;;;;;;;7.07;1.95;;;;;;;8.85;51.12;101934.28;4997233;28;20049;-68
2022/04/17 08:33:54;;;;;;;3.50;1.75;;;;;;;8.98;52.02;101938.34;4987657;28;20560;-68
2022/04/17 08:36:57;;;;;;;;;;;;;;;9.17;51.90;101927.47;4988066;28;20301;-68
2022/04/17 08:40:01;;;;;;;6.05;1.70;;;;;;;9.26;50.68;101935.09;4988061;28;20044;-68
2022/04/17 08:43:07;;;;;;;4.47;2.45;;;;;;;9.31;49.81;101925.38;4993683;28;20080;-68
2022/04/17 08:46:11;;;;;;;7.18;1.70;;;;;;;9.43;50.67;101922.47;4991556;28;20041;-68
2022/04/17 08:49:14;;;;;;;4.10;1.80;;;;;;;9.64;50.48;101917.59;4992377;28;20096;-68
2022/04/17 08:52:18;;;;;;;4.70;1.50;;;;;;;9.71;48.61;101914.78;4992279;28;20049;-68
2022/04/17 08:55:22;;;;;;;5.55;1.85;;;;;;;9.89;49.69;101916.06;4992642;28;20096;-68
2022/04/17 08:58:26;;;;;;;4.40;2.40;;;;;;;10.02;48.28;101904.34;4980117;28;20108;-68
2022/04/17 09:01:30;;;;;;;3.15;1.50;;;;;;;10.25;48.33;101892.38;4993159;28;20060;-68
2022/04/17 09:04:34;;;;;;;5.43;1.65;;;;;;;10.38;47.94;101888.53;4996970;28;20045;-68
2022/04/17 09:07:47;;;;;;;6.47;2.65;;;;;;;10.43;47.84;101896.22;4997143;28;20049;-68
2022/04/17 09:10:56;;;;;;;4.88;1.80;;;;;;;10.42;46.04;101890.16;5009537;28;20065;-68
2022/04/17 09:14:03;;;;;;;4.15;1.33;;;;;;;10.58;46.26;101884.47;5015288;28;20044;-68
2022/04/17 09:17:11;;;;;;;5.07;1.55;;;;;;;10.51;46.06;101881.19;5015447;28;20108;-68
2022/04/17 09:20:20;;;;;;;5.53;1.67;;;;;;;10.59;46.85;101873.97;5015897;28;20500;-68
2022/04/17 09:23:38;;;;;;;4.15;1.50;;;;;;;10.86;45.58;101867.00;5015583;28;20100;-68
2022/04/17 09:26:53;;;;;;;4.43;1.27;;;;;;;11.08;43.50;101864.56;5014935;28;20504;-68
2022/04/17 09:29:57;;;;;;;4.30;1.25;;;;;;;11.11;44.95;101858.38;5015398;28;20092;-68
2022/04/17 09:33:09;;;;;;;4.32;1.30;;;;;;;11.25;43.78;101860.50;5015363;28;20115;-68
2022/04/17 09:36:12;;;;;;;4.82;1.15;;;;;;;11.37;43.87;101853.09;5015441;28;20115;-68
2022/04/17 09:39:16;;;;;;;3.53;1.23;;;;;;;11.44;43.77;101852.88;5015231;28;20088;-68
2022/04/17 09:42:20;;;;;;;;;;;;;;;11.41;44.33;101845.97;5015321;28;20401;-68
2022/04/17 09:45:24;;;;;;;4.95;1.52;;;;;;;11.56;43.52;101847.22;5014628;28;19963;-68
2022/04/17 09:48:36;;;;;;;4.38;1.85;;;;;;;11.60;41.15;101835.72;5014627;28;20496;-68
2022/04/17 09:51:40;;;;;;;3.42;1.63;;;;;;;11.68;42.56;101825.81;5014177;28;20136;-68
2022/04/17 09:54:44;;;;;;;6.93;1.13;;;;;;;11.72;40.88;101818.72;5013829;28;20661;-68
2022/04/17 09:57:56;;;;;;;3.97;1.23;;;;;;;11.98;38.06;101823.03;5014502;28;20197;-68
2022/04/17 10:01:00;;;;;;;2.97;1.00;;;;;;;12.04;38.76;101822.78;5014783;28;20053;-68
2022/04/17 10:04:05;;;;;;;5.10;1.48;;;;;;;12.16;36.53;101811.00;5025390;28;20084;-68
2022/04/17 10:07:11;;;;;;;3.75;1.20;;;;;;;12.28;37.34;101800.88;5013932;28;20044;-68
2022/04/17 10:10:17;;;;;;;3.20;1.23;;;;;;;12.28;37.55;101795.63;5014469;28;20076;-68
2022/04/17 10:13:21;;;;;;;4.32;1.33;;;;;;;12.47;36.32;101797.50;5013314;28;20583;-68
2022/04/17 10:16:28;;;;;;;4.93;1.05;;;;;;;12.58;36.91;101787.44;5014488;28;20509;-68
2022/04/17 10:19:35;;;;;;;3.78;1.15;;;;;;;12.76;37.44;101791.06;5014566;28;20088;-68
2022/04/17 10:22:44;;;;;;;5.18;1.00;;;;;;;12.76;37.86;101776.22;5001508;28;20547;-68
2022/04/17 10:25:50;;;;;;;6.07;1.27;;;;;;;12.70;37.92;101781.72;5014332;28;20576;-68
2022/04/17 10:28:55;;;;;;;3.55;1.27;;;;;;;12.82;36.77;101782.94;5014188;28;20049;-68
2022/04/17 10:32:33;;;;;;;2.70;0.85;;;;;;;12.84;35.92;101770.63;5014334;28;20045;-68
2022/04/17 10:35:48;;;;;;;3.00;0.93;;;;;;;12.80;36.08;101762.03;5014380;28;20067;-68
2022/04/17 10:39:06;;;;;;;2.50;0.88;;;;;;;12.91;35.76;101748.44;5014209;28;20092;-68
2022/04/17 10:42:10;;;;;;;3.25;1.00;;;;;;;13.11;35.90;101744.97;5013672;28;20092;-68
2022/04/17 10:45:13;;;;;;;;;;;;;;;13.24;34.90;101743.56;5014415;28;20524;-68
2022/04/17 10:48:27;;;;;;;5.13;1.08;;;;;;;13.25;36.09;101737.38;5013868;28;19960;-68
2022/04/17 10:51:35;;;;;;;2.70;0.70;;;;;;;13.45;35.16;101738.25;5014044;28;20139;-68
2022/04/17 10:55:09;;;;;;;3.35;1.00;;;;;;;13.64;34.11;101726.00;5013722;28;20091;-68
2022/04/17 10:58:16;;;;;;;2.55;0.90;;;;;;;13.68;33.79;101722.28;5013834;28;20049;-68
2022/04/17 11:01:45;;;;;;;3.72;0.88;;;;;;;13.47;32.88;101718.03;5013774;28;20125;-68
2022/04/17 11:04:54;;;;;;;3.67;1.00;;;;;;;13.54;34.33;101718.59;5012061;28;20040;-68
2022/04/17 11:08:17;;;;;;;3.50;1.05;;;;;;;13.46;31.87;101705.78;5011776;28;20543;-68
2022/04/17 11:11:22;;;;;;;2.35;0.47;;;;;;;13.74;32.93;101713.28;5011389;28;20113;-68
2022/04/17 11:14:27;;;;;;;3.70;1.42;;;;;;;13.93;31.90;101702.75;5012302;28;20140;-68
2022/04/17 11:17:32;;;;;;;3.65;1.20;;;;;;;14.03;31.52;101698.75;5011252;28;20052;-68
2022/04/17 11:20:38;;;;;;;1.88;0.52;;;;;;;13.94;30.44;101696.56;5012325;28;20048;-68
2022/04/17 11:23:48;;;;;;;2.95;0.88;;;;;;;14.03;30.46;101684.75;5013167;28;20048;-69
2022/04/17 11:26:54;;;;;;;5.75;0.85;;;;;;;14.22;30.51;101687.34;5013348;28;20069;-69
2022/04/17 11:30:01;;;;;;;5.45;0.60;;;;;;;14.25;30.57;101681.94;5013176;28;20445;-69
2022/04/17 11:33:06;;;;;;;7.43;1.75;;;;;;;14.23;31.61;101678.50;5013233;28;20052;-70
2022/04/17 11:36:11;;;;;;;2.85;0.85;;;;;;;14.33;30.19;101674.53;5013168;28;20129;-69
2022/04/17 11:39:25;;;;;;;2.92;1.17;;;;;;;14.27;29.25;101673.03;5013137;28;20041;-69
2022/04/17 11:42:31;;;;;;;2.30;0.80;;;;;;;14.34;29.77;101668.31;5000961;28;20141;-69
2022/04/17 11:45:35;;;;;;;3.80;0.95;;;;;;;14.55;30.03;101663.78;5013030;28;20084;-68
2022/04/17 11:48:39;;;;;;;3.05;0.60;;;;;;;14.62;28.72;101649.41;5013107;28;20108;-69
2022/04/17 11:51:46;;;;;;;1.95;0.70;;;;;;;14.47;28.10;101650.97;5013413;28;20056;-68
2022/04/17 11:54:49;;;;;;;3.13;0.50;;;;;;;14.71;28.21;101648.03;5012772;28;20045;-68
2022/04/17 11:57:53;;;;;;;3.25;1.10;;;;;;;14.66;26.81;101643.03;5012864;28;20409;-69
2022/04/17 12:01:02;;;;;;;2.33;0.80;;;;;;;14.75;27.75;101646.97;5012778;28;20052;-69
2022/04/17 12:04:06;;;;;;;1.83;0.43;;;;;;;14.68;25.44;101633.28;5012633;28;20049;-69
2022/04/17 12:07:10;;;;;;;1.85;0.47;;;;;;;14.86;27.39;101631.47;5012508;28;20036;-69
2022/04/17 12:10:14;;;;;;;4.95;1.00;;;;;;;15.30;25.39;101628.25;5012315;28;20052;-69
2022/04/17 12:13:21;;;;;;;3.40;0.73;;;;;;;15.44;26.08;101617.78;5012653;28;20528;-69
2022/04/17 12:16:24;;;;;;;3.53;0.90;;;;;;;15.63;26.69;101628.16;5012422;28;20049;-69
2022/04/17 12:19:29;;;;;;;6.07;1.10;;;;;;;15.75;26.44;101616.09;5012419;28;20093;-69
2022/04/17 12:22:33;;;;;;;3.25;0.98;;;;;;;15.73;26.44;101617.97;5012221;28;20208;-69
2022/04/17 12:25:37;;;;;;;2.80;1.02;;;;;;;15.81;26.19;101621.03;5012372;28;20045;-69
2022/04/17 12:28:43;;;;;;;3.42;0.80;;;;;;;16.07;25.41;101605.50;5012371;28;20073;-68
2022/04/17 12:31:46;;;;;;;2.40;0.90;;;;;;;16.02;26.10;101597.88;5012381;28;20471;-69
2022/04/17 12:35:00;;;;;;;4.32;0.88;;;;;;;16.27;27.05;101589.34;5012381;28;20044;-69
2022/04/17 12:38:10;;;;;;;4.45;0.80;;;;;;;16.86;27.34;101589.34;5015727;28;20057;-69
2022/04/17 12:41:19;;;;;;;4.82;1.00;;;;;;;16.89;27.20;101579.44;5016404;28;20057;-69
2022/04/17 12:44:33;;;;;;;2.72;0.70;;;;;;;17.35;27.88;101584.44;5016091;28;20098;-69
2022/04/17 12:47:39;;;;;;;4.13;0.95;;;;;;;17.57;25.78;101577.78;5016094;28;20132;-69
2022/04/17 12:50:42;;;;;;;2.90;0.70;;;;;;;17.55;26.52;101571.75;5015925;28;20184;-69
2022/04/17 12:53:49;;;;;;;7.43;4.75;;;;;;;17.14;25.65;101556.78;5016216;28;20420;-69
2022/04/17 12:57:01;;;;;;;11.98;8.82;;;;;;;17.89;26.44;101552.75;5016019;28;20096;-69
2022/04/17 13:00:29;;;;;;;3.03;1.00;;;;;;;18.21;24.28;101551.53;5016233;28;20412;-69
2022/04/17 13:03:34;;;;;;;2.35;0.90;;;;;;;18.52;24.04;101550.28;5016041;28;20049;-69
2022/04/17 13:06:39;;;;;;;3.85;1.00;;;;;;;18.26;24.81;101541.50;5015572;28;20085;-69
2022/04/17 13:09:50;;;;;;;6.25;2.35;;;;;;;18.70;26.46;101537.56;5015588;28;20065;-69
2022/04/17 13:12:53;;;;;;;5.65;1.80;;;;;;;19.15;27.04;101530.81;5015861;28;20512;-68
2022/04/17 13:16:01;;;;;;;3.45;1.00;;;;;;;19.17;25.99;101528.88;5015470;28;20164;-69
2022/04/17 13:19:04;;;;;;;2.40;0.70;;;;;;;19.23;29.10;101522.28;5015501;28;20056;-69
2022/04/17 13:22:08;;;;;;;2.72;0.93;;;;;;;19.81;24.84;101499.41;5015412;28;20112;-69
2022/04/17 13:25:15;;;;;;;2.15;0.93;;;;;;;20.35;23.60;101505.91;5015852;28;20052;-69
2022/04/17 13:28:19;;;;;;;2.40;0.70;;;;;;;20.77;22.80;101504.38;5015623;28;20172;-69
2022/04/17 13:31:23;;;;;;;2.70;0.80;;;;;;;21.33;22.13;101493.59;5015324;28;20072;-69
2022/04/17 13:34:26;;;;;;;3.50;0.57;;;;;;;21.30;20.58;101496.50;5014219;28;20052;-69
2022/04/17 13:40:53;;;;;;;3.25;0.90;;;;;;;25.19;18.14;101479.19;5015153;28;20515;-69
2022/04/17 13:43:56;;;;;;;4.43;1.10;;;;;;;27.77;14.85;101471.84;5015589;28;20409;-69
2022/04/17 13:46:59;;;;;;;2.47;1.00;;;;;;;28.87;13.67;101466.59;5014986;28;20400;-69
2022/04/17 13:50:04;;;;;;;1.95;0.80;;;;;;;29.03;13.61;101465.69;5015351;28;20252;-69
2022/04/17 13:53:08;;;;;;;2.65;0.90;;;;;;;32.30;11.16;101447.03;5014566;28;20082;-70
2022/04/17 13:56:11;;;;;;;2.35;0.90;;;;;;;31.71;11.86;101441.03;5014970;28;20405;-67
2022/04/17 13:59:15;;;;;;;3.17;1.00;;;;;;;30.58;11.80;101434.53;5014990;28;20044;-67
2022/04/17 14:02:18;;;;;;;2.85;1.10;;;;;;;31.47;10.93;101419.88;5014861;28;20104;-67
2022/04/17 14:05:22;;;;;;;2.55;1.00;;;;;;;30.86;12.01;101419.50;4665223;28;10000254;-68
2022/04/17 14:08:25;;;;;;;4.22;1.10;;;;;;;30.76;10.83;101415.22;5011449;28;20120;-68
2022/04/17 14:11:30;;;;;;;2.30;1.10;;;;;;;32.51;10.32;101403.59;5011216;28;20615;-68
2022/04/17 14:14:33;;;;;;;2.72;1.20;;;;;;;32.86;10.01;101396.19;5011458;28;20324;-68
2022/04/17 14:17:37;;;;;;;3.78;1.42;;;;;;;33.27;9.40;101388.94;5010475;28;20049;-68
2022/04/17 14:20:41;;;;;;;3.45;1.27;;;;;;;33.81;8.79;101387.84;5014368;28;20597;-67
2022/04/17 14:23:45;;;;;;;1.92;0.90;;;;;;;34.53;9.28;101379.69;5014534;28;20048;-68
2022/04/17 14:26:49;;;;;;;2.30;1.20;;;;;;;32.55;9.27;101377.81;5014411;28;20049;-68
2022/04/17 14:29:53;;;;;;;3.70;1.40;;;;;;;32.01;10.37;101369.69;5014372;28;20120;-68
2022/04/17 14:32:57;;;;;;;3.17;1.05;;;;;;;28.75;10.86;101365.78;5014235;28;20099;-68
2022/04/17 14:36:01;;;;;;;1.85;0.73;;;;;;;34.07;9.71;101364.41;5014183;28;20360;-68
2022/04/17 14:39:04;;;;;;;4.28;1.63;;;;;;;34.31;8.97;101358.25;5014199;28;20119;-68
2022/04/17 14:42:09;;;;;;;2.17;0.85;;;;;;;34.12;8.25;101351.03;5012845;28;20508;-68
2022/04/17 14:45:22;;;;;;;1.95;1.00;;;;;;;33.52;8.83;101351.22;5013771;28;20104;-68
2022/04/17 14:48:26;;;;;;;2.13;1.00;;;;;;;33.14;9.21;101349.13;5013746;28;20049;-69
2022/04/17 14:51:32;;;;;;;6.03;1.15;;;;;;;32.71;9.21;101344.09;5014055;28;20084;-68